X  Schliessen METAR Luftfahrt Wetterdaten     LSZB Bern-Belp Airport
Temperatur
59°F Temperatur
59°F Taupunkt
100% Feuchtigkeit



Wind
1 mph
2 km/h
0 m/s
1 kts



Kein Wind
N
Aktuelle Wetterlage

Klar Klar
Luftdruck 1021 (hPa) - 30.15 (inHg)
Sichtweite 6 (Meile) - 9.7 (km)
Flughafen
Flughafen Code LSZB

Position: Bern-Belp Airport
Entfernung: 45 (mi)

Metar:
LSZB 182350Z AUTO VRB01KT CAVOK 15/15 Q1021

Zeit: 19-07-2024 01:50 CEST